Main page
METAR-TAF:

METAR-TAF

Airports :

Scatsta Airport

Scatsta, Shetland, Scotland

latitude: 60-26N, longitude: 001-18W, elevation: 22 m

Current weather observation

The report was made 32 minutes ago, at 20:50 UTC
Wind 8 kt from the South/Southwest
Temperature 8°C
Humidity 93%
Pressure 1009 hPa
Visibility 10 km or more

METAR: EGPM 132050Z AUTO 20008KT 9999 NCD 08/07 Q1009

Time: 21:22 (21:22 UTC)

Forecast

The report was made 4 hours and 24 minutes ago, at 16:58 UTC
Forecast valid from 13 at 18 UTC to 13 at 20 UTC
Wind 9 kt from the Southwest
Visibility 10 km or more
Scattered clouds at a height of 1500 ft

TAF: EGPM 131658Z 1318/1320 23009KT 9999 SCT015

Weather observations and forecasts of more than 4000 airports (METAR and TAF reports).

The available stations are represented by yellow and red dots on the map.

Hover mouse over dot to see the name of the station.

Then click to see weather observations and forecasts.

To change the map : click on the green buttons with a black cross to zoom in, on the green button with a dash to zoom out, or on the green arrows for adjacent maps.


METAR-TAF: